sensor_id;sensor_type;location;lat;lon;timestamp;P1;durP1;ratioP1;P2;durP2;ratioP2
14992;SDS011;7592;51.088;13.732;2023-11-22T00:02:23;16.60;;;14.20;;
14992;SDS011;7592;51.088;13.732;2023-11-22T00:07:20;17.17;;;12.93;;
14992;SDS011;7592;51.088;13.732;2023-11-22T00:12:13;17.43;;;14.20;;
14992;SDS011;7592;51.088;13.732;2023-11-22T00:17:05;15.60;;;12.80;;
14992;SDS011;7592;51.088;13.732;2023-11-22T00:21:58;17.17;;;13.20;;
14992;SDS011;7592;51.088;13.732;2023-11-22T00:26:50;20.57;;;13.97;;
14992;SDS011;7592;51.088;13.732;2023-11-22T00:31:42;17.53;;;12.87;;
14992;SDS011;7592;51.088;13.732;2023-11-22T00:36:36;17.57;;;13.20;;
14992;SDS011;7592;51.088;13.732;2023-11-22T00:41:31;18.20;;;12.50;;
14992;SDS011;7592;51.088;13.732;2023-11-22T00:46:24;19.27;;;13.63;;
14992;SDS011;7592;51.088;13.732;2023-11-22T00:51:16;18.63;;;14.13;;
14992;SDS011;7592;51.088;13.732;2023-11-22T00:56:09;17.43;;;13.63;;
14992;SDS011;7592;51.088;13.732;2023-11-22T01:01:01;16.27;;;13.83;;
14992;SDS011;7592;51.088;13.732;2023-11-22T01:05:53;19.83;;;15.17;;
14992;SDS011;7592;51.088;13.732;2023-11-22T01:10:45;17.63;;;14.23;;
14992;SDS011;7592;51.088;13.732;2023-11-22T01:15:37;21.83;;;15.60;;
14992;SDS011;7592;51.088;13.732;2023-11-22T01:20:29;21.70;;;14.87;;
14992;SDS011;7592;51.088;13.732;2023-11-22T01:25:21;20.73;;;15.73;;
14992;SDS011;7592;51.088;13.732;2023-11-22T01:30:13;19.00;;;13.83;;
14992;SDS011;7592;51.088;13.732;2023-11-22T01:35:07;21.97;;;15.87;;
14992;SDS011;7592;51.088;13.732;2023-11-22T01:40:00;20.23;;;15.10;;
14992;SDS011;7592;51.088;13.732;2023-11-22T01:44:54;23.43;;;15.47;;
14992;SDS011;7592;51.088;13.732;2023-11-22T01:49:46;19.93;;;13.93;;
14992;SDS011;7592;51.088;13.732;2023-11-22T01:54:39;19.00;;;13.63;;
14992;SDS011;7592;51.088;13.732;2023-11-22T01:59:32;17.83;;;13.80;;
14992;SDS011;7592;51.088;13.732;2023-11-22T02:04:24;21.57;;;14.13;;
14992;SDS011;7592;51.088;13.732;2023-11-22T02:09:16;22.20;;;14.10;;
14992;SDS011;7592;51.088;13.732;2023-11-22T02:14:23;20.07;;;13.77;;
14992;SDS011;7592;51.088;13.732;2023-11-22T02:19:16;16.33;;;12.63;;
14992;SDS011;7592;51.088;13.732;2023-11-22T02:24:09;19.57;;;14.07;;
14992;SDS011;7592;51.088;13.732;2023-11-22T02:29:02;17.40;;;13.23;;
14992;SDS011;7592;51.088;13.732;2023-11-22T02:33:58;19.63;;;14.90;;
14992;SDS011;7592;51.088;13.732;2023-11-22T02:38:50;19.30;;;13.93;;
14992;SDS011;7592;51.088;13.732;2023-11-22T02:43:43;18.93;;;13.30;;
14992;SDS011;7592;51.088;13.732;2023-11-22T02:48:35;17.33;;;12.73;;
14992;SDS011;7592;51.088;13.732;2023-11-22T02:53:27;22.30;;;15.27;;
14992;SDS011;7592;51.088;13.732;2023-11-22T02:58:22;22.30;;;15.47;;
14992;SDS011;7592;51.088;13.732;2023-11-22T03:03:14;18.33;;;13.70;;
14992;SDS011;7592;51.088;13.732;2023-11-22T03:08:06;20.37;;;13.83;;
14992;SDS011;7592;51.088;13.732;2023-11-22T03:12:59;22.50;;;15.47;;
14992;SDS011;7592;51.088;13.732;2023-11-22T03:17:51;20.80;;;14.40;;
14992;SDS011;7592;51.088;13.732;2023-11-22T03:22:43;19.17;;;14.27;;
14992;SDS011;7592;51.088;13.732;2023-11-22T03:27:40;19.50;;;14.80;;
14992;SDS011;7592;51.088;13.732;2023-11-22T03:32:32;20.10;;;14.27;;
14992;SDS011;7592;51.088;13.732;2023-11-22T03:37:28;18.73;;;14.37;;
14992;SDS011;7592;51.088;13.732;2023-11-22T03:42:20;19.70;;;14.47;;
14992;SDS011;7592;51.088;13.732;2023-11-22T03:47:14;19.07;;;14.27;;
14992;SDS011;7592;51.088;13.732;2023-11-22T03:52:10;17.53;;;13.93;;
14992;SDS011;7592;51.088;13.732;2023-11-22T03:57:02;21.07;;;15.03;;
14992;SDS011;7592;51.088;13.732;2023-11-22T04:01:55;17.80;;;14.07;;
14992;SDS011;7592;51.088;13.732;2023-11-22T04:06:47;16.53;;;13.87;;
14992;SDS011;7592;51.088;13.732;2023-11-22T04:11:39;20.77;;;13.60;;
14992;SDS011;7592;51.088;13.732;2023-11-22T04:16:32;21.30;;;14.83;;
14992;SDS011;7592;51.088;13.732;2023-11-22T04:21:24;18.33;;;13.80;;
14992;SDS011;7592;51.088;13.732;2023-11-22T04:26:17;22.57;;;14.13;;
14992;SDS011;7592;51.088;13.732;2023-11-22T04:31:11;19.20;;;14.77;;
14992;SDS011;7592;51.088;13.732;2023-11-22T04:36:04;22.57;;;15.07;;
14992;SDS011;7592;51.088;13.732;2023-11-22T04:40:56;21.53;;;14.30;;
14992;SDS011;7592;51.088;13.732;2023-11-22T04:45:48;23.50;;;14.87;;
14992;SDS011;7592;51.088;13.732;2023-11-22T04:50:41;19.03;;;14.70;;
14992;SDS011;7592;51.088;13.732;2023-11-22T04:55:34;20.07;;;14.67;;
14992;SDS011;7592;51.088;13.732;2023-11-22T05:00:26;20.60;;;14.60;;
14992;SDS011;7592;51.088;13.732;2023-11-22T05:05:18;24.67;;;17.30;;
14992;SDS011;7592;51.088;13.732;2023-11-22T05:10:10;25.40;;;22.70;;
14992;SDS011;7592;51.088;13.732;2023-11-22T05:15:03;18.47;;;13.43;;
14992;SDS011;7592;51.088;13.732;2023-11-22T05:19:56;19.07;;;15.20;;
14992;SDS011;7592;51.088;13.732;2023-11-22T05:24:48;18.97;;;14.83;;
14992;SDS011;7592;51.088;13.732;2023-11-22T05:29:41;18.63;;;15.03;;
14992;SDS011;7592;51.088;13.732;2023-11-22T05:34:45;18.30;;;14.27;;
14992;SDS011;7592;51.088;13.732;2023-11-22T05:39:37;18.27;;;13.37;;
14992;SDS011;7592;51.088;13.732;2023-11-22T05:44:29;17.83;;;14.13;;
14992;SDS011;7592;51.088;13.732;2023-11-22T05:49:21;18.97;;;14.37;;
14992;SDS011;7592;51.088;13.732;2023-11-22T05:54:14;23.57;;;15.77;;
14992;SDS011;7592;51.088;13.732;2023-11-22T05:59:08;22.13;;;17.00;;
14992;SDS011;7592;51.088;13.732;2023-11-22T06:04:00;18.27;;;14.27;;
14992;SDS011;7592;51.088;13.732;2023-11-22T06:08:52;21.87;;;16.20;;
14992;SDS011;7592;51.088;13.732;2023-11-22T06:13:44;20.10;;;16.40;;
14992;SDS011;7592;51.088;13.732;2023-11-22T06:18:40;24.13;;;18.27;;
14992;SDS011;7592;51.088;13.732;2023-11-22T06:23:32;22.83;;;16.67;;
14992;SDS011;7592;51.088;13.732;2023-11-22T06:28:24;22.73;;;15.80;;
14992;SDS011;7592;51.088;13.732;2023-11-22T06:33:16;23.00;;;16.50;;
14992;SDS011;7592;51.088;13.732;2023-11-22T06:38:08;23.33;;;16.43;;
14992;SDS011;7592;51.088;13.732;2023-11-22T06:43:01;20.20;;;15.70;;
14992;SDS011;7592;51.088;13.732;2023-11-22T06:47:55;23.47;;;17.30;;
14992;SDS011;7592;51.088;13.732;2023-11-22T06:52:47;26.47;;;17.33;;
14992;SDS011;7592;51.088;13.732;2023-11-22T06:57:41;24.20;;;17.37;;
14992;SDS011;7592;51.088;13.732;2023-11-22T07:02:33;22.67;;;16.97;;
14992;SDS011;7592;51.088;13.732;2023-11-22T07:07:29;24.30;;;16.23;;
14992;SDS011;7592;51.088;13.732;2023-11-22T07:12:21;26.40;;;17.20;;
14992;SDS011;7592;51.088;13.732;2023-11-22T07:17:13;25.83;;;17.00;;
14992;SDS011;7592;51.088;13.732;2023-11-22T07:22:05;27.43;;;18.03;;
14992;SDS011;7592;51.088;13.732;2023-11-22T07:27:07;27.40;;;18.10;;
14992;SDS011;7592;51.088;13.732;2023-11-22T07:32:03;26.87;;;17.47;;
14992;SDS011;7592;51.088;13.732;2023-11-22T07:36:56;25.77;;;16.40;;
14992;SDS011;7592;51.088;13.732;2023-11-22T07:41:48;21.37;;;15.90;;
14992;SDS011;7592;51.088;13.732;2023-11-22T07:46:44;20.53;;;16.13;;
14992;SDS011;7592;51.088;13.732;2023-11-22T07:51:36;22.03;;;15.73;;
14992;SDS011;7592;51.088;13.732;2023-11-22T07:56:28;20.73;;;15.20;;
14992;SDS011;7592;51.088;13.732;2023-11-22T08:01:24;20.43;;;15.60;;
14992;SDS011;7592;51.088;13.732;2023-11-22T08:06:17;22.83;;;15.57;;
14992;SDS011;7592;51.088;13.732;2023-11-22T08:11:09;21.37;;;16.23;;
14992;SDS011;7592;51.088;13.732;2023-11-22T08:16:08;23.30;;;15.70;;
14992;SDS011;7592;51.088;13.732;2023-11-22T08:21:01;35.40;;;22.63;;
14992;SDS011;7592;51.088;13.732;2023-11-22T08:25:53;33.20;;;22.03;;
14992;SDS011;7592;51.088;13.732;2023-11-22T08:30:47;23.23;;;17.00;;
14992;SDS011;7592;51.088;13.732;2023-11-22T08:35:39;23.97;;;16.97;;
14992;SDS011;7592;51.088;13.732;2023-11-22T08:40:32;22.63;;;16.87;;
14992;SDS011;7592;51.088;13.732;2023-11-22T08:45:26;28.93;;;17.77;;
14992;SDS011;7592;51.088;13.732;2023-11-22T08:50:20;23.17;;;17.00;;
14992;SDS011;7592;51.088;13.732;2023-11-22T08:55:14;25.67;;;17.67;;
14992;SDS011;7592;51.088;13.732;2023-11-22T09:00:06;22.33;;;16.87;;
14992;SDS011;7592;51.088;13.732;2023-11-22T09:05:01;25.67;;;16.50;;
14992;SDS011;7592;51.088;13.732;2023-11-22T09:09:58;23.53;;;16.87;;
14992;SDS011;7592;51.088;13.732;2023-11-22T09:14:50;22.43;;;16.73;;
14992;SDS011;7592;51.088;13.732;2023-11-22T09:19:42;23.83;;;17.27;;
14992;SDS011;7592;51.088;13.732;2023-11-22T09:24:35;22.93;;;16.07;;
14992;SDS011;7592;51.088;13.732;2023-11-22T09:29:28;21.67;;;15.53;;
14992;SDS011;7592;51.088;13.732;2023-11-22T09:34:20;18.93;;;14.50;;
14992;SDS011;7592;51.088;13.732;2023-11-22T09:39:12;20.50;;;15.20;;
14992;SDS011;7592;51.088;13.732;2023-11-22T09:44:04;19.47;;;14.93;;
14992;SDS011;7592;51.088;13.732;2023-11-22T09:48:57;22.17;;;15.00;;
14992;SDS011;7592;51.088;13.732;2023-11-22T09:53:52;23.73;;;14.93;;
14992;SDS011;7592;51.088;13.732;2023-11-22T09:58:48;18.23;;;13.17;;
14992;SDS011;7592;51.088;13.732;2023-11-22T10:03:47;17.63;;;13.03;;
14992;SDS011;7592;51.088;13.732;2023-11-22T10:08:40;21.57;;;13.30;;
14992;SDS011;7592;51.088;13.732;2023-11-22T10:13:33;20.70;;;15.87;;
14992;SDS011;7592;51.088;13.732;2023-11-22T10:18:25;23.03;;;17.33;;
14992;SDS011;7592;51.088;13.732;2023-11-22T10:23:20;19.97;;;14.30;;
14992;SDS011;7592;51.088;13.732;2023-11-22T10:28:20;16.13;;;12.13;;
14992;SDS011;7592;51.088;13.732;2023-11-22T10:33:15;19.00;;;12.67;;
14992;SDS011;7592;51.088;13.732;2023-11-22T10:38:08;18.20;;;13.60;;
14992;SDS011;7592;51.088;13.732;2023-11-22T10:43:00;15.60;;;12.13;;
14992;SDS011;7592;51.088;13.732;2023-11-22T10:47:53;17.43;;;11.63;;
14992;SDS011;7592;51.088;13.732;2023-11-22T10:52:47;15.83;;;11.33;;
14992;SDS011;7592;51.088;13.732;2023-11-22T10:57:46;14.27;;;10.83;;
14992;SDS011;7592;51.088;13.732;2023-11-22T11:02:45;15.30;;;11.17;;
14992;SDS011;7592;51.088;13.732;2023-11-22T11:07:41;16.10;;;11.37;;
14992;SDS011;7592;51.088;13.732;2023-11-22T11:12:40;12.97;;;9.73;;
14992;SDS011;7592;51.088;13.732;2023-11-22T11:17:32;20.27;;;13.17;;
14992;SDS011;7592;51.088;13.732;2023-11-22T11:22:25;17.33;;;11.13;;
14992;SDS011;7592;51.088;13.732;2023-11-22T11:27:21;17.03;;;10.67;;
14992;SDS011;7592;51.088;13.732;2023-11-22T11:32:32;14.90;;;10.57;;
14992;SDS011;7592;51.088;13.732;2023-11-22T11:37:25;11.33;;;8.83;;
14992;SDS011;7592;51.088;13.732;2023-11-22T11:42:20;11.17;;;8.23;;
14992;SDS011;7592;51.088;13.732;2023-11-22T11:47:15;13.00;;;8.43;;
14992;SDS011;7592;51.088;13.732;2023-11-22T11:52:08;11.10;;;7.97;;
14992;SDS011;7592;51.088;13.732;2023-11-22T11:57:00;11.33;;;9.07;;
14992;SDS011;7592;51.088;13.732;2023-11-22T12:01:53;8.73;;;6.70;;
14992;SDS011;7592;51.088;13.732;2023-11-22T12:06:46;12.30;;;7.87;;
14992;SDS011;7592;51.088;13.732;2023-11-22T12:11:39;10.07;;;7.87;;
14992;SDS011;7592;51.088;13.732;2023-11-22T12:16:32;12.47;;;8.80;;
14992;SDS011;7592;51.088;13.732;2023-11-22T12:21:26;11.63;;;6.63;;
14992;SDS011;7592;51.088;13.732;2023-11-22T12:26:19;8.87;;;6.43;;
14992;SDS011;7592;51.088;13.732;2023-11-22T12:31:13;12.87;;;8.87;;
14992;SDS011;7592;51.088;13.732;2023-11-22T12:36:06;10.60;;;7.53;;
14992;SDS011;7592;51.088;13.732;2023-11-22T12:41:08;8.77;;;6.87;;
14992;SDS011;7592;51.088;13.732;2023-11-22T12:46:06;8.57;;;6.93;;
14992;SDS011;7592;51.088;13.732;2023-11-22T12:50:59;6.57;;;5.50;;
14992;SDS011;7592;51.088;13.732;2023-11-22T12:55:52;9.60;;;6.17;;
14992;SDS011;7592;51.088;13.732;2023-11-22T13:00:46;7.13;;;5.90;;
14992;SDS011;7592;51.088;13.732;2023-11-22T13:05:39;7.17;;;6.20;;
14992;SDS011;7592;51.088;13.732;2023-11-22T13:10:35;8.00;;;5.90;;
14992;SDS011;7592;51.088;13.732;2023-11-22T13:15:27;7.70;;;5.87;;
14992;SDS011;7592;51.088;13.732;2023-11-22T13:20:20;8.43;;;6.60;;
14992;SDS011;7592;51.088;13.732;2023-11-22T13:25:17;7.47;;;5.53;;
14992;SDS011;7592;51.088;13.732;2023-11-22T13:30:10;9.13;;;7.77;;
14992;SDS011;7592;51.088;13.732;2023-11-22T13:35:03;6.90;;;5.73;;
14992;SDS011;7592;51.088;13.732;2023-11-22T13:40:03;8.53;;;6.07;;
14992;SDS011;7592;51.088;13.732;2023-11-22T13:45:05;8.20;;;6.40;;
14992;SDS011;7592;51.088;13.732;2023-11-22T13:49:58;9.13;;;7.07;;
14992;SDS011;7592;51.088;13.732;2023-11-22T13:54:50;9.70;;;6.87;;
14992;SDS011;7592;51.088;13.732;2023-11-22T13:59:47;9.47;;;6.40;;
14992;SDS011;7592;51.088;13.732;2023-11-22T14:04:39;9.80;;;6.43;;
14992;SDS011;7592;51.088;13.732;2023-11-22T14:09:32;35.03;;;21.30;;
14992;SDS011;7592;51.088;13.732;2023-11-22T14:14:28;11.03;;;7.50;;
14992;SDS011;7592;51.088;13.732;2023-11-22T14:19:20;9.63;;;7.13;;
14992;SDS011;7592;51.088;13.732;2023-11-22T14:24:13;9.27;;;7.13;;
14992;SDS011;7592;51.088;13.732;2023-11-22T14:29:05;8.83;;;6.67;;
14992;SDS011;7592;51.088;13.732;2023-11-22T14:33:57;12.03;;;7.77;;
14992;SDS011;7592;51.088;13.732;2023-11-22T14:38:49;9.90;;;6.83;;
14992;SDS011;7592;51.088;13.732;2023-11-22T14:43:46;10.53;;;7.97;;
14992;SDS011;7592;51.088;13.732;2023-11-22T14:48:38;9.33;;;7.40;;
14992;SDS011;7592;51.088;13.732;2023-11-22T14:53:33;13.37;;;9.40;;
14992;SDS011;7592;51.088;13.732;2023-11-22T14:58:25;11.23;;;8.93;;
14992;SDS011;7592;51.088;13.732;2023-11-22T15:03:17;12.70;;;9.63;;
14992;SDS011;7592;51.088;13.732;2023-11-22T15:08:09;13.80;;;9.87;;
14992;SDS011;7592;51.088;13.732;2023-11-22T15:13:01;12.63;;;9.27;;
14992;SDS011;7592;51.088;13.732;2023-11-22T15:17:54;12.93;;;9.50;;
14992;SDS011;7592;51.088;13.732;2023-11-22T15:22:47;13.63;;;10.70;;
14992;SDS011;7592;51.088;13.732;2023-11-22T15:27:39;15.00;;;10.27;;
14992;SDS011;7592;51.088;13.732;2023-11-22T15:32:31;14.37;;;9.90;;
14992;SDS011;7592;51.088;13.732;2023-11-22T15:37:23;14.80;;;10.50;;
14992;SDS011;7592;51.088;13.732;2023-11-22T15:42:15;13.90;;;10.43;;
14992;SDS011;7592;51.088;13.732;2023-11-22T15:47:07;10.83;;;9.20;;
14992;SDS011;7592;51.088;13.732;2023-11-22T15:52:05;13.60;;;10.33;;
14992;SDS011;7592;51.088;13.732;2023-11-22T15:56:57;13.20;;;10.47;;
14992;SDS011;7592;51.088;13.732;2023-11-22T16:01:49;12.73;;;10.53;;
14992;SDS011;7592;51.088;13.732;2023-11-22T16:06:42;13.70;;;11.40;;
14992;SDS011;7592;51.088;13.732;2023-11-22T16:11:35;17.03;;;11.93;;
14992;SDS011;7592;51.088;13.732;2023-11-22T16:16:27;16.57;;;11.77;;
14992;SDS011;7592;51.088;13.732;2023-11-22T16:21:19;19.70;;;13.33;;
14992;SDS011;7592;51.088;13.732;2023-11-22T16:26:11;16.47;;;12.47;;
14992;SDS011;7592;51.088;13.732;2023-11-22T16:31:04;13.43;;;10.90;;
14992;SDS011;7592;51.088;13.732;2023-11-22T16:35:57;16.40;;;12.03;;
14992;SDS011;7592;51.088;13.732;2023-11-22T16:40:50;16.90;;;11.93;;
14992;SDS011;7592;51.088;13.732;2023-11-22T16:45:48;15.77;;;11.87;;
14992;SDS011;7592;51.088;13.732;2023-11-22T16:50:43;12.17;;;10.33;;
14992;SDS011;7592;51.088;13.732;2023-11-22T16:55:35;19.20;;;13.43;;
14992;SDS011;7592;51.088;13.732;2023-11-22T17:00:28;24.00;;;15.80;;
14992;SDS011;7592;51.088;13.732;2023-11-22T17:05:20;19.40;;;13.57;;
14992;SDS011;7592;51.088;13.732;2023-11-22T17:10:13;25.40;;;17.73;;
14992;SDS011;7592;51.088;13.732;2023-11-22T17:15:05;16.03;;;12.43;;
14992;SDS011;7592;51.088;13.732;2023-11-22T17:19:58;15.53;;;11.40;;
14992;SDS011;7592;51.088;13.732;2023-11-22T17:24:51;16.40;;;12.30;;
14992;SDS011;7592;51.088;13.732;2023-11-22T17:29:43;18.17;;;13.57;;
14992;SDS011;7592;51.088;13.732;2023-11-22T17:34:35;18.37;;;12.57;;
14992;SDS011;7592;51.088;13.732;2023-11-22T17:39:28;18.20;;;12.43;;
14992;SDS011;7592;51.088;13.732;2023-11-22T17:44:20;17.90;;;12.60;;
14992;SDS011;7592;51.088;13.732;2023-11-22T17:49:12;14.57;;;11.83;;
14992;SDS011;7592;51.088;13.732;2023-11-22T17:54:05;16.87;;;13.23;;
14992;SDS011;7592;51.088;13.732;2023-11-22T17:58:59;15.53;;;13.27;;
14992;SDS011;7592;51.088;13.732;2023-11-22T18:03:51;24.17;;;15.17;;
14992;SDS011;7592;51.088;13.732;2023-11-22T18:08:44;22.10;;;15.60;;
14992;SDS011;7592;51.088;13.732;2023-11-22T18:13:37;18.63;;;13.93;;
14992;SDS011;7592;51.088;13.732;2023-11-22T18:18:29;18.63;;;13.57;;
14992;SDS011;7592;51.088;13.732;2023-11-22T18:23:21;39.10;;;24.90;;
14992;SDS011;7592;51.088;13.732;2023-11-22T18:28:17;26.40;;;18.37;;
14992;SDS011;7592;51.088;13.732;2023-11-22T18:33:10;22.20;;;15.80;;
14992;SDS011;7592;51.088;13.732;2023-11-22T18:38:04;21.23;;;15.20;;
14992;SDS011;7592;51.088;13.732;2023-11-22T18:42:56;18.23;;;14.70;;
14992;SDS011;7592;51.088;13.732;2023-11-22T18:47:48;21.60;;;16.00;;
14992;SDS011;7592;51.088;13.732;2023-11-22T18:52:43;20.37;;;14.77;;
14992;SDS011;7592;51.088;13.732;2023-11-22T18:57:35;20.37;;;15.40;;
14992;SDS011;7592;51.088;13.732;2023-11-22T19:02:27;21.90;;;15.63;;
14992;SDS011;7592;51.088;13.732;2023-11-22T19:07:20;22.17;;;16.67;;
14992;SDS011;7592;51.088;13.732;2023-11-22T19:12:14;21.77;;;15.57;;
14992;SDS011;7592;51.088;13.732;2023-11-22T19:17:06;24.07;;;17.50;;
14992;SDS011;7592;51.088;13.732;2023-11-22T19:22:00;26.83;;;18.27;;
14992;SDS011;7592;51.088;13.732;2023-11-22T19:26:52;27.50;;;18.53;;
14992;SDS011;7592;51.088;13.732;2023-11-22T19:31:47;26.13;;;18.77;;
14992;SDS011;7592;51.088;13.732;2023-11-22T19:36:39;27.20;;;18.57;;
14992;SDS011;7592;51.088;13.732;2023-11-22T19:41:31;26.83;;;18.67;;
14992;SDS011;7592;51.088;13.732;2023-11-22T19:46:23;26.23;;;18.20;;
14992;SDS011;7592;51.088;13.732;2023-11-22T19:51:15;27.40;;;18.40;;
14992;SDS011;7592;51.088;13.732;2023-11-22T19:56:07;25.50;;;17.53;;
14992;SDS011;7592;51.088;13.732;2023-11-22T20:01:00;25.67;;;17.93;;
14992;SDS011;7592;51.088;13.732;2023-11-22T20:05:52;26.53;;;16.93;;
14992;SDS011;7592;51.088;13.732;2023-11-22T20:10:45;22.73;;;16.17;;
14992;SDS011;7592;51.088;13.732;2023-11-22T20:15:37;24.90;;;16.07;;
14992;SDS011;7592;51.088;13.732;2023-11-22T20:20:30;24.53;;;16.30;;
14992;SDS011;7592;51.088;13.732;2023-11-22T20:25:22;23.57;;;16.47;;
14992;SDS011;7592;51.088;13.732;2023-11-22T20:30:14;24.67;;;16.63;;
14992;SDS011;7592;51.088;13.732;2023-11-22T20:35:06;26.33;;;18.27;;
14992;SDS011;7592;51.088;13.732;2023-11-22T20:39:59;22.57;;;16.20;;
14992;SDS011;7592;51.088;13.732;2023-11-22T20:44:51;24.40;;;16.33;;
14992;SDS011;7592;51.088;13.732;2023-11-22T20:49:43;23.40;;;16.53;;
14992;SDS011;7592;51.088;13.732;2023-11-22T20:54:38;22.60;;;15.80;;
14992;SDS011;7592;51.088;13.732;2023-11-22T20:59:30;23.33;;;16.43;;
14992;SDS011;7592;51.088;13.732;2023-11-22T21:04:23;23.03;;;14.63;;
14992;SDS011;7592;51.088;13.732;2023-11-22T21:09:15;25.30;;;15.77;;
14992;SDS011;7592;51.088;13.732;2023-11-22T21:14:08;22.00;;;14.67;;
14992;SDS011;7592;51.088;13.732;2023-11-22T21:19:01;21.90;;;14.90;;
14992;SDS011;7592;51.088;13.732;2023-11-22T21:23:53;21.80;;;15.13;;
14992;SDS011;7592;51.088;13.732;2023-11-22T21:28:48;22.03;;;15.07;;
14992;SDS011;7592;51.088;13.732;2023-11-22T21:33:40;19.97;;;13.87;;
14992;SDS011;7592;51.088;13.732;2023-11-22T21:38:34;17.90;;;13.27;;
14992;SDS011;7592;51.088;13.732;2023-11-22T21:43:26;19.60;;;13.57;;
14992;SDS011;7592;51.088;13.732;2023-11-22T21:48:19;17.53;;;12.73;;
14992;SDS011;7592;51.088;13.732;2023-11-22T21:53:11;20.43;;;13.43;;
14992;SDS011;7592;51.088;13.732;2023-11-22T21:58:04;17.80;;;13.00;;
14992;SDS011;7592;51.088;13.732;2023-11-22T22:02:56;18.27;;;13.63;;
14992;SDS011;7592;51.088;13.732;2023-11-22T22:07:48;18.97;;;12.37;;
14992;SDS011;7592;51.088;13.732;2023-11-22T22:12:40;16.97;;;13.07;;
14992;SDS011;7592;51.088;13.732;2023-11-22T22:17:33;16.10;;;11.57;;
14992;SDS011;7592;51.088;13.732;2023-11-22T22:22:25;14.87;;;11.40;;
14992;SDS011;7592;51.088;13.732;2023-11-22T22:27:19;14.63;;;10.77;;
14992;SDS011;7592;51.088;13.732;2023-11-22T22:32:11;12.10;;;9.50;;
14992;SDS011;7592;51.088;13.732;2023-11-22T22:37:06;12.47;;;10.00;;
14992;SDS011;7592;51.088;13.732;2023-11-22T22:41:59;12.73;;;9.40;;
14992;SDS011;7592;51.088;13.732;2023-11-22T22:46:51;11.40;;;8.73;;
14992;SDS011;7592;51.088;13.732;2023-11-22T22:51:47;10.30;;;8.77;;
14992;SDS011;7592;51.088;13.732;2023-11-22T22:56:53;12.00;;;8.37;;
14992;SDS011;7592;51.088;13.732;2023-11-22T23:01:46;11.10;;;8.83;;
14992;SDS011;7592;51.088;13.732;2023-11-22T23:06:38;10.50;;;8.23;;
14992;SDS011;7592;51.088;13.732;2023-11-22T23:11:31;8.00;;;7.10;;
14992;SDS011;7592;51.088;13.732;2023-11-22T23:16:27;11.43;;;8.33;;
14992;SDS011;7592;51.088;13.732;2023-11-22T23:21:19;9.63;;;7.77;;
14992;SDS011;7592;51.088;13.732;2023-11-22T23:26:11;8.33;;;7.00;;
14992;SDS011;7592;51.088;13.732;2023-11-22T23:31:03;7.93;;;6.57;;
14992;SDS011;7592;51.088;13.732;2023-11-22T23:35:59;8.50;;;6.90;;
14992;SDS011;7592;51.088;13.732;2023-11-22T23:40:54;7.43;;;6.63;;
14992;SDS011;7592;51.088;13.732;2023-11-22T23:45:48;8.10;;;7.30;;
14992;SDS011;7592;51.088;13.732;2023-11-22T23:50:42;7.97;;;6.57;;
14992;SDS011;7592;51.088;13.732;2023-11-22T23:55:34;7.80;;;6.63;;
